Portada
METAR-TAF:

METAR-TAF

Aeroports :

Pago Pago, Illes Perifèriques Menors dels EUA

latitud: 14-20S, longitud: 170-43W, altitud: 3 m

Observació

L'informe es va fer fa 47 minuts, a les 07:50 UTC
Vent 12 kt del Sud-Est
Temperatura 28°C
Humitat 74%
Pressió 1013 hPa
Visibilitat: 16.1 km
Núvols disperses a una alçada de 2400 ft

METAR: NSTU 120750Z 14012KT 10SM SCT024 28/23 A2990 RMK SLP125 T02750229

Hora: 21:37 (08:37 UTC)

Pronòstic

L'informe es va fer fa 3 hores i 15 minuts, a les 05:22 UTC
Pronòstic vàlid del 12 a les 06 UTC al 13 a les 06 UTC
Vent 9 kt del Est/Sud-Est
Visibilitat: 10 km
Núvols disperses a una alçada de 2200 ft
Núvols disperses a una alçada de 4000 ft

TAF: NSTU 120522Z 1206/1306 12009KT P6SM SCT022 SCT040

Observacions i pronòstics meteorològics de més de 4000 aeroports (METAR i TAF).

Les estacions disponibles són els punts grocs i vermells al mapa.

Posi el ratolí al punt desitjat per veure el nom de l'estació.

Feu clic per veure les observacions i els pronòstics meteorològics.

Per canviar el mapa: feu clic els botons verds amb una creu de color negre per apropar; al botó verd amb un guió per allunyar la imatge; o en les fletxes verdes per a mapes adjacents.


METAR-TAF: